Time;durP1;ratioP1;P1;durP2;ratioP2;P2;SDS_P1;SDS_P2;PMS_P1;PMS_P2;Temp;Humidity;BMP_temperature;BMP_pressure;BME280_temperature;BME280_humidity;BME280_pressure;Samples;Min_cycle;Max_cycle;Signal;HPM_P1;HPM_P2
2021/07/03 00:00:48;;;;;;;;;;;28.40;92.80;;;;;;1872756;74;20431;-90
2021/07/03 00:03:20;;;;;;;;;;;28.40;92.80;;;;;;1898016;74;20224;-92
2021/07/03 00:05:50;;;;;;;;;;;28.40;92.80;;;;;;1882113;75;20250;-90
2021/07/03 00:08:20;;;;;;;;;;;28.40;92.60;;;;;;1857348;74;20283;-91
2021/07/03 00:10:50;;;;;;;;;;;28.40;92.70;;;;;;1871101;76;20187;-87
2021/07/03 00:13:24;;;;;;;;;;;28.40;92.70;;;;;;1880881;74;20526;-90
2021/07/03 00:15:52;;;;;;;;;;;28.40;92.60;;;;;;1869868;75;20135;-91
2021/07/03 00:18:22;;;;;;;;;;;28.40;92.60;;;;;;1862050;75;20176;-90
2021/07/03 00:20:52;;;;;;;;;;;28.40;92.60;;;;;;1867829;75;20207;-90
2021/07/03 00:23:21;;;;;;;;;;;28.40;92.50;;;;;;1866432;74;20132;-86
2021/07/03 00:25:54;;;;;;;;;;;28.40;92.60;;;;;;1812926;76;20167;-90
2021/07/03 00:28:24;;;;;;;;;;;28.40;92.60;;;;;;1847309;75;20475;-91
2021/07/03 00:30:58;;;;;;;;;;;28.50;92.90;;;;;;1795768;77;20126;-90
2021/07/03 00:33:30;;;;;;;;;;;28.60;92.70;;;;;;1837234;75;20215;-90
2021/07/03 00:36:00;;;;;;;;;;;28.60;92.50;;;;;;1852126;76;20130;-91
2021/07/03 00:38:29;;;;;;;;;;;28.60;92.40;;;;;;1822955;76;20190;-93
2021/07/03 00:41:02;;;;;;;;;;;28.70;92.50;;;;;;1879763;74;20279;-93
2021/07/03 00:43:38;;;;;;;;;;;28.70;92.50;;;;;;1872675;75;20216;-85
2021/07/03 00:46:08;;;;;;;;;;;28.70;92.70;;;;;;1867479;75;20173;-89
2021/07/03 00:48:49;;;;;;;;;;;28.80;92.40;;;;;;1870296;75;20132;-89
2021/07/03 00:51:33;;;;;;;;;;;28.90;92.30;;;;;;1846780;75;20124;-86
2021/07/03 00:54:02;;;;;;;;;;;28.90;92.20;;;;;;1876221;74;20386;-86
2021/07/03 00:56:32;;;;;;;;;;;29.00;92.30;;;;;;1890128;73;20196;-91
2021/07/03 00:59:03;;;;;;;;;;;29.10;92.20;;;;;;1869294;75;20187;-94
2021/07/03 01:01:33;;;;;;;;;;;29.20;92.00;;;;;;1869546;75;20200;-90
2021/07/03 01:04:05;;;;;;;;;;;29.20;91.90;;;;;;1862074;74;20167;-93
2021/07/03 01:06:40;;;;;;;;;;;29.30;91.70;;;;;;1846997;76;20174;-91
2021/07/03 01:09:09;;;;;;;;;;;29.30;91.80;;;;;;1850452;75;20184;-88
2021/07/03 01:11:39;;;;;;;;;;;29.40;91.60;;;;;;1881697;75;20542;-91
2021/07/03 01:14:08;;;;;;;;;;;29.50;91.50;;;;;;1864485;76;20518;-86
2021/07/03 01:16:38;;;;;;;;;;;29.60;91.10;;;;;;1863113;74;20192;-93
2021/07/03 01:19:08;;;;;;;;;;;29.60;90.90;;;;;;1819348;76;20192;-93
2021/07/03 01:21:39;;;;;;;;;;;29.80;90.70;;;;;;1869872;74;20244;-92
2021/07/03 01:24:09;;;;;;;;;;;29.80;90.50;;;;;;1815630;76;20178;-91
2021/07/03 01:26:40;;;;;;;;;;;29.90;90.30;;;;;;1874081;75;20152;-89
2021/07/03 01:29:10;;;;;;;;;;;30.00;90.30;;;;;;1860676;75;20250;-94
2021/07/03 01:31:40;;;;;;;;;;;30.10;90.10;;;;;;1849563;77;20174;-91
2021/07/03 01:34:16;;;;;;;;;;;30.20;90.00;;;;;;1803964;77;20183;-90
2021/07/03 01:36:46;;;;;;;;;;;30.20;89.80;;;;;;1833832;75;20233;-89
2021/07/03 01:39:16;;;;;;;;;;;30.30;89.20;;;;;;1863154;75;20293;-91
2021/07/03 01:41:46;;;;;;;;;;;30.30;88.90;;;;;;1882888;74;20157;-93
2021/07/03 01:44:17;;;;;;;;;;;30.40;88.90;;;;;;1867366;75;20220;-91
2021/07/03 01:46:47;;;;;;;;;;;30.40;88.10;;;;;;1880403;75;20482;-85
2021/07/03 01:49:17;;;;;;;;;;;30.40;88.70;;;;;;1863117;75;20211;-93
2021/07/03 01:51:47;;;;;;;;;;;30.50;88.60;;;;;;1863459;73;20257;-93
2021/07/03 01:54:19;;;;;;;;;;;30.60;87.50;;;;;;1822831;77;20191;-91
2021/07/03 01:56:59;;;;;;;;;;;30.60;87.70;;;;;;1843511;75;20248;-93
2021/07/03 01:59:28;;;;;;;;;;;30.80;86.70;;;;;;1850288;75;20129;-86
2021/07/03 02:02:00;;;;;;;;;;;30.90;85.10;;;;;;1865869;73;20194;-90
2021/07/03 02:04:31;;;;;;;;;;;31.00;85.50;;;;;;1871262;75;20192;-79
2021/07/03 02:07:01;;;;;;;;;;;31.10;85.90;;;;;;1875743;73;20223;-81
2021/07/03 02:09:31;;;;;;;;;;;31.20;83.50;;;;;;1897438;74;20134;-80
2021/07/03 02:12:00;;;;;;;;;;;31.30;84.10;;;;;;1877703;73;20180;-81
2021/07/03 02:14:30;;;;;;;;;;;31.40;82.70;;;;;;1882608;73;20165;-81
2021/07/03 02:16:59;;;;;;;;;;;31.50;82.60;;;;;;1870034;74;20513;-81
2021/07/03 02:19:32;;;;;;;;;;;31.60;82.50;;;;;;1876798;74;20268;-81
2021/07/03 02:22:05;;;;;;;;;;;31.80;81.10;;;;;;1878729;74;20247;-82
2021/07/03 02:24:37;;;;;;;;;;;31.80;79.50;;;;;;1888219;73;20243;-81
2021/07/03 02:27:07;;;;;;;;;;;31.90;79.00;;;;;;1870528;74;20174;-80
2021/07/03 02:29:37;;;;;;;;;;;32.00;79.30;;;;;;1877929;74;20200;-80
2021/07/03 02:32:08;;;;;;;;;;;32.00;79.70;;;;;;1867980;73;20466;-80
2021/07/03 02:34:38;;;;;;;;;;;32.10;79.50;;;;;;1894349;73;20625;-80
2021/07/03 02:37:07;;;;;;;;;;;32.10;78.80;;;;;;1896625;74;20210;-81
2021/07/03 02:39:38;;;;;;;;;;;32.20;79.10;;;;;;1904801;73;20185;-79
2021/07/03 02:42:07;;;;;;;;;;;32.30;79.30;;;;;;1886972;74;20138;-80
2021/07/03 02:44:37;;;;;;;;;;;32.40;78.40;;;;;;1881570;73;21411;-81
2021/07/03 02:47:06;;;;;;;;;;;32.50;78.60;;;;;;1890410;74;20207;-80
2021/07/03 02:49:38;;;;;;;;;;;32.60;78.00;;;;;;1849817;75;20709;-80
2021/07/03 02:52:07;;;;;;;;;;;32.60;76.90;;;;;;1866631;75;20213;-80
2021/07/03 02:54:37;;;;;;;;;;;32.70;76.70;;;;;;1855566;74;20162;-80
2021/07/03 02:57:07;;;;;;;;;;;32.80;77.20;;;;;;1881123;74;20147;-82
2021/07/03 02:59:36;;;;;;;;;;;32.80;75.40;;;;;;1870423;75;20522;-81
2021/07/03 03:02:06;;;;;;;;;;;32.80;76.00;;;;;;1900528;74;20201;-81
2021/07/03 03:04:37;;;;;;;;;;;32.80;77.20;;;;;;1873568;74;20471;-80
2021/07/03 03:07:07;;;;;;;;;;;32.90;76.90;;;;;;1895477;75;20335;-82
2021/07/03 03:09:37;;;;;;;;;;;33.00;76.40;;;;;;1882977;74;20193;-82
2021/07/03 03:12:07;;;;;;;;;;;33.00;75.10;;;;;;1880351;74;20267;-81
2021/07/03 03:14:37;;;;;;;;;;;33.10;75.20;;;;;;1874863;74;20190;-81
2021/07/03 03:17:06;;;;;;;;;;;33.10;74.10;;;;;;1902645;72;20566;-82
2021/07/03 03:19:36;;;;;;;;;;;33.30;73.60;;;;;;1884761;74;20217;-80
2021/07/03 03:22:06;;;;;;;;;;;33.30;74.50;;;;;;1886655;74;20249;-77
2021/07/03 03:24:35;;;;;;;;;;;33.30;74.20;;;;;;1870129;75;20156;-78
2021/07/03 03:27:05;;;;;;;;;;;33.40;73.30;;;;;;1891811;73;20252;-79
2021/07/03 03:29:35;;;;;;;;;;;33.50;73.50;;;;;;1894630;73;20477;-79
2021/07/03 03:32:04;;;;;;;;;;;33.60;72.30;;;;;;1884425;74;20473;-79
2021/07/03 03:34:35;;;;;;;;;;;33.60;71.10;;;;;;1848350;75;20154;-81
2021/07/03 03:37:05;;;;;;;;;;;33.70;70.70;;;;;;1877056;74;20196;-82
2021/07/03 03:39:37;;;;;;;;;;;33.70;70.60;;;;;;1874081;74;20184;-79
2021/07/03 03:42:07;;;;;;;;;;;33.80;70.20;;;;;;1884096;74;20208;-80
2021/07/03 03:44:37;;;;;;;;;;;33.90;68.80;;;;;;1887323;74;20162;-81
2021/07/03 03:47:06;;;;;;;;;;;34.00;68.70;;;;;;1892614;74;20192;-80
2021/07/03 03:49:36;;;;;;;;;;;34.10;67.40;;;;;;1874782;74;20262;-80
2021/07/03 03:52:06;;;;;;;;;;;34.10;67.20;;;;;;1899560;73;20179;-80
2021/07/03 03:54:37;;;;;;;;;;;34.10;67.40;;;;;;1885371;74;20833;-80
2021/07/03 03:59:38;;;;;;;;;;;34.10;67.50;;;;;;1881457;73;20180;-82
2021/07/03 04:02:08;;;;;;;;;;;34.20;67.90;;;;;;1893634;73;20202;-81
2021/07/03 04:04:38;;;;;;;;;;;34.30;66.10;;;;;;1884546;74;20263;-81
2021/07/03 04:07:07;;;;;;;;;;;34.30;66.50;;;;;;1886010;75;20240;-81
2021/07/03 04:09:37;;;;;;;;;;;34.40;66.60;;;;;;1864868;75;20444;-81
2021/07/03 04:12:07;;;;;;;;;;;34.50;65.70;;;;;;1869007;73;20205;-81
2021/07/03 04:14:37;;;;;;;;;;;34.50;66.30;;;;;;1893376;74;20243;-82
2021/07/03 04:17:07;;;;;;;;;;;34.60;66.10;;;;;;1874879;75;20285;-82
2021/07/03 04:19:37;;;;;;;;;;;34.60;64.80;;;;;;1843229;75;20474;-82
2021/07/03 04:22:07;;;;;;;;;;;34.50;64.60;;;;;;1886600;73;20133;-82
2021/07/03 04:24:37;;;;;;;;;;;34.50;65.50;;;;;;1879614;74;20431;-82
2021/07/03 04:27:07;;;;;;;;;;;34.60;65.90;;;;;;1889553;74;20247;-82
2021/07/03 04:29:36;;;;;;;;;;;34.70;65.30;;;;;;1899182;74;20822;-82
2021/07/03 04:32:06;;;;;;;;;;;34.70;62.90;;;;;;1881725;75;20183;-82
2021/07/03 04:34:36;;;;;;;;;;;34.70;62.10;;;;;;1898336;74;20461;-83
2021/07/03 04:37:06;;;;;;;;;;;34.60;63.00;;;;;;1900439;74;20161;-83
2021/07/03 04:39:36;;;;;;;;;;;34.60;64.50;;;;;;1891600;73;20188;-82
2021/07/03 04:42:05;;;;;;;;;;;34.70;64.10;;;;;;1874302;75;20180;-81
2021/07/03 04:44:36;;;;;;;;;;;34.70;63.30;;;;;;1894187;72;20639;-81
2021/07/03 04:47:06;;;;;;;;;;;34.70;59.30;;;;;;1898787;73;20228;-82
2021/07/03 04:49:35;;;;;;;;;;;34.80;59.40;;;;;;1868248;75;20445;-80
2021/07/03 04:52:06;;;;;;;;;;;34.80;60.10;;;;;;1867135;74;20138;-80
2021/07/03 04:54:35;;;;;;;;;;;34.90;61.40;;;;;;1868491;75;20388;-80
2021/07/03 04:57:08;;;;;;;;;;;35.00;58.40;;;;;;1887802;74;20252;-81
2021/07/03 04:59:37;;;;;;;;;;;35.10;59.00;;;;;;1877209;74;20298;-80
2021/07/03 05:02:07;;;;;;;;;;;35.10;59.80;;;;;;1800237;77;20127;-79
2021/07/03 05:04:37;;;;;;;;;;;35.10;60.40;;;;;;1851276;74;20571;-79
2021/07/03 05:07:07;;;;;;;;;;;35.20;59.20;;;;;;1863147;74;20475;-79
2021/07/03 05:09:36;;;;;;;;;;;35.20;58.70;;;;;;1869684;74;20267;-80
2021/07/03 05:12:06;;;;;;;;;;;35.20;59.00;;;;;;1888888;73;20546;-79
2021/07/03 05:14:36;;;;;;;;;;;35.20;57.20;;;;;;1874562;74;20767;-80
2021/07/03 05:17:06;;;;;;;;;;;35.20;57.40;;;;;;1880092;73;20218;-80
2021/07/03 05:19:36;;;;;;;;;;;35.20;56.50;;;;;;1882318;73;20729;-81
2021/07/03 05:22:07;;;;;;;;;;;35.30;56.80;;;;;;1885093;74;20161;-81
2021/07/03 05:24:36;;;;;;;;;;;35.40;57.60;;;;;;1891156;74;20317;-81
2021/07/03 05:27:06;;;;;;;;;;;35.50;57.20;;;;;;1866858;74;20235;-80
2021/07/03 05:29:36;;;;;;;;;;;35.60;56.40;;;;;;1884772;73;20576;-81
2021/07/03 05:32:05;;;;;;;;;;;35.80;57.00;;;;;;1866033;74;20195;-80
2021/07/03 05:34:35;;;;;;;;;;;35.80;57.50;;;;;;1877331;73;20280;-81
2021/07/03 05:37:06;;;;;;;;;;;35.90;57.00;;;;;;1874406;73;20227;-80
2021/07/03 05:39:36;;;;;;;;;;;35.90;56.40;;;;;;1876406;73;20286;-79
2021/07/03 05:42:05;;;;;;;;;;;35.80;56.70;;;;;;1869481;74;20203;-82
2021/07/03 05:44:35;;;;;;;;;;;35.80;56.70;;;;;;1889972;73;20221;-81
2021/07/03 05:47:05;;;;;;;;;;;35.80;56.40;;;;;;1867614;74;20587;-80
2021/07/03 05:49:35;;;;;;;;;;;35.90;57.40;;;;;;1865330;73;20219;-81
2021/07/03 05:52:04;;;;;;;;;;;35.90;57.00;;;;;;1871948;73;20131;-81
2021/07/03 05:54:34;;;;;;;;;;;36.00;56.70;;;;;;1871332;73;20116;-80
2021/07/03 05:57:04;;;;;;;;;;;35.90;56.80;;;;;;1861845;73;20203;-80
2021/07/03 05:59:34;;;;;;;;;;;35.90;56.90;;;;;;1844563;76;20188;-80
2021/07/03 06:02:04;;;;;;;;;;;35.90;57.20;;;;;;1863532;75;20125;-80
2021/07/03 06:04:33;;;;;;;;;;;35.90;56.80;;;;;;1898163;74;20327;-81
2021/07/03 06:07:03;;;;;;;;;;;35.90;56.00;;;;;;1874124;75;20209;-81
2021/07/03 06:09:34;;;;;;;;;;;35.80;55.10;;;;;;1871664;75;20172;-80
2021/07/03 06:12:04;;;;;;;;;;;35.70;55.30;;;;;;1867707;74;20129;-81
2021/07/03 06:14:34;;;;;;;;;;;35.60;55.70;;;;;;1875308;73;20158;-80
2021/07/03 06:17:03;;;;;;;;;;;35.70;56.20;;;;;;1866500;74;20593;-81
2021/07/03 06:19:33;;;;;;;;;;;35.90;55.00;;;;;;1883742;74;20198;-81
2021/07/03 06:22:03;;;;;;;;;;;35.90;55.50;;;;;;1873380;73;20218;-82
2021/07/03 06:24:33;;;;;;;;;;;35.90;55.00;;;;;;1873453;74;20469;-80
2021/07/03 06:27:02;;;;;;;;;;;35.80;55.00;;;;;;1882046;74;20205;-83
2021/07/03 06:29:32;;;;;;;;;;;35.80;55.00;;;;;;1904302;73;20215;-82
2021/07/03 06:32:03;;;;;;;;;;;35.80;55.70;;;;;;1897580;73;20128;-82
2021/07/03 06:34:33;;;;;;;;;;;35.80;55.40;;;;;;1878651;74;20246;-83
2021/07/03 06:37:04;;;;;;;;;;;35.80;55.90;;;;;;1856521;75;20205;-83
2021/07/03 06:39:35;;;;;;;;;;;35.70;57.10;;;;;;1872578;75;20279;-82
2021/07/03 06:42:04;;;;;;;;;;;35.80;57.30;;;;;;1873415;74;20130;-82
2021/07/03 06:44:34;;;;;;;;;;;35.70;57.40;;;;;;1868833;74;20267;-83
2021/07/03 06:47:04;;;;;;;;;;;35.70;57.50;;;;;;1868046;74;20277;-83
2021/07/03 06:49:37;;;;;;;;;;;35.60;57.50;;;;;;1876333;74;20172;-83
2021/07/03 06:52:09;;;;;;;;;;;35.60;57.70;;;;;;1826940;76;20231;-82
2021/07/03 06:54:40;;;;;;;;;;;35.60;55.90;;;;;;1894385;74;20145;-79
2021/07/03 06:57:12;;;;;;;;;;;35.70;55.10;;;;;;1868779;75;20268;-80
2021/07/03 06:59:41;;;;;;;;;;;35.80;54.30;;;;;;1885824;74;20171;-79
2021/07/03 07:02:11;;;;;;;;;;;35.90;54.90;;;;;;1873916;73;20219;-81
2021/07/03 07:04:40;;;;;;;;;;;36.00;54.70;;;;;;1873815;74;20215;-81
2021/07/03 07:07:10;;;;;;;;;;;36.00;55.00;;;;;;1901273;74;20491;-81
2021/07/03 07:09:40;;;;;;;;;;;36.00;55.00;;;;;;1886855;73;20154;-81
2021/07/03 07:12:10;;;;;;;;;;;36.10;54.50;;;;;;1871443;74;20287;-84
2021/07/03 07:14:41;;;;;;;;;;;36.10;53.60;;;;;;1899814;73;20200;-81
2021/07/03 07:17:11;;;;;;;;;;;36.10;52.80;;;;;;1876673;73;20209;-81
2021/07/03 07:19:46;;;;;;;;;;;36.10;53.90;;;;;;1870303;73;20169;-83
2021/07/03 07:22:20;;;;;;;;;;;36.10;53.70;;;;;;1856145;75;20198;-80
2021/07/03 07:24:50;;;;;;;;;;;36.10;53.80;;;;;;1868287;74;20188;-80
2021/07/03 07:27:20;;;;;;;;;;;36.10;54.40;;;;;;1888534;73;20270;-80
2021/07/03 07:29:50;;;;;;;;;;;36.10;54.50;;;;;;1871483;74;20231;-81
2021/07/03 07:32:20;;;;;;;;;;;36.20;54.60;;;;;;1888128;74;20170;-80
2021/07/03 07:34:50;;;;;;;;;;;36.10;53.90;;;;;;1876791;74;20260;-82
2021/07/03 07:37:20;;;;;;;;;;;36.00;54.20;;;;;;1857891;75;20463;-83
2021/07/03 07:39:50;;;;;;;;;;;35.90;54.70;;;;;;1884848;75;20277;-83
2021/07/03 07:42:20;;;;;;;;;;;35.90;55.00;;;;;;1878083;74;20210;-81
2021/07/03 07:44:49;;;;;;;;;;;35.80;54.80;;;;;;1872170;75;20248;-81
2021/07/03 07:47:20;;;;;;;;;;;35.70;55.30;;;;;;1874185;75;20169;-81
2021/07/03 07:49:50;;;;;;;;;;;35.60;55.70;;;;;;1837266;75;20196;-81
2021/07/03 07:52:20;;;;;;;;;;;35.60;55.20;;;;;;1888506;74;20429;-81
2021/07/03 07:54:49;;;;;;;;;;;35.60;56.00;;;;;;1881769;74;20261;-79
2021/07/03 07:57:21;;;;;;;;;;;35.70;56.20;;;;;;1889484;73;20168;-79
2021/07/03 07:59:50;;;;;;;;;;;35.80;56.00;;;;;;1880846;74;20137;-81
2021/07/03 08:02:20;;;;;;;;;;;35.90;55.00;;;;;;1881820;74;20248;-81
2021/07/03 08:04:50;;;;;;;;;;;36.00;55.10;;;;;;1885782;74;20435;-81
2021/07/03 08:07:20;;;;;;;;;;;36.10;54.90;;;;;;1888520;73;20428;-82
2021/07/03 08:09:50;;;;;;;;;;;36.10;55.10;;;;;;1868785;76;20231;-80
2021/07/03 08:12:19;;;;;;;;;;;36.10;54.80;;;;;;1866116;75;20439;-79
2021/07/03 08:14:49;;;;;;;;;;;36.10;54.80;;;;;;1861760;75;20452;-81
2021/07/03 08:17:19;;;;;;;;;;;35.90;55.40;;;;;;1890856;73;20166;-80
2021/07/03 08:19:48;;;;;;;;;;;35.70;55.40;;;;;;1883209;74;20286;-81
2021/07/03 08:22:18;;;;;;;;;;;35.60;55.90;;;;;;1902324;73;20131;-80
2021/07/03 08:24:48;;;;;;;;;;;35.60;56.30;;;;;;1852962;74;20776;-81
2021/07/03 08:27:18;;;;;;;;;;;35.50;56.20;;;;;;1895880;73;20158;-81
2021/07/03 08:29:47;;;;;;;;;;;35.50;56.40;;;;;;1868932;74;20159;-80
2021/07/03 08:32:18;;;;;;;;;;;35.40;56.70;;;;;;1892220;74;20264;-82
2021/07/03 08:34:48;;;;;;;;;;;35.30;56.80;;;;;;1888663;74;20185;-81
2021/07/03 08:37:18;;;;;;;;;;;35.30;57.00;;;;;;1871929;74;20159;-81
2021/07/03 08:39:48;;;;;;;;;;;35.30;57.40;;;;;;1877493;74;20242;-80
2021/07/03 08:42:17;;;;;;;;;;;35.40;57.30;;;;;;1909856;74;20157;-79
2021/07/03 08:44:49;;;;;;;;;;;35.40;57.40;;;;;;1899553;73;20219;-81
2021/07/03 08:47:19;;;;;;;;;;;35.30;56.90;;;;;;1912362;74;20174;-80
2021/07/03 08:49:52;;;;;;;;;;;35.30;57.10;;;;;;1887362;73;20248;-79
2021/07/03 08:52:22;;;;;;;;;;;35.30;58.50;;;;;;1812993;77;20530;-82
2021/07/03 08:54:53;;;;;;;;;;;35.20;57.60;;;;;;1842946;77;20599;-80
2021/07/03 08:57:25;;;;;;;;;;;35.10;57.80;;;;;;1823336;76;20201;-80
2021/07/03 08:59:56;;;;;;;;;;;35.00;58.00;;;;;;1898059;74;20191;-81
2021/07/03 09:02:27;;;;;;;;;;;35.00;58.50;;;;;;1894938;73;20199;-82
2021/07/03 09:05:01;;;;;;;;;;;34.90;58.10;;;;;;1893446;74;20195;-82
2021/07/03 09:07:32;;;;;;;;;;;35.00;59.10;;;;;;1890211;74;20234;-81
2021/07/03 09:10:06;;;;;;;;;;;34.90;58.70;;;;;;1885173;74;20200;-80
2021/07/03 09:12:38;;;;;;;;;;;34.80;59.70;;;;;;1888770;75;20214;-80
2021/07/03 09:15:10;;;;;;;;;;;34.80;59.70;;;;;;1877131;74;20162;-81
2021/07/03 09:17:41;;;;;;;;;;;34.60;59.60;;;;;;1890930;73;20184;-80
2021/07/03 09:20:12;;;;;;;;;;;34.50;59.70;;;;;;1871718;75;20207;-80
2021/07/03 09:22:43;;;;;;;;;;;34.30;60.20;;;;;;1897489;73;20205;-79
2021/07/03 09:25:17;;;;;;;;;;;34.10;61.50;;;;;;1873782;74;20187;-79
2021/07/03 09:27:47;;;;;;;;;;;34.00;61.80;;;;;;1867814;75;20876;-80
2021/07/03 09:30:21;;;;;;;;;;;33.90;63.80;;;;;;1878365;73;20174;-80
2021/07/03 09:32:52;;;;;;;;;;;33.70;64.60;;;;;;1900273;74;20173;-79
2021/07/03 09:35:22;;;;;;;;;;;33.50;66.60;;;;;;1872895;74;20156;-78
2021/07/03 09:37:55;;;;;;;;;;;33.40;67.30;;;;;;1884902;73;20274;-77
2021/07/03 09:40:27;;;;;;;;;;;33.30;67.80;;;;;;1887283;74;20245;-78
2021/07/03 09:42:58;;;;;;;;;;;33.20;66.70;;;;;;1883815;73;20165;-80
2021/07/03 09:45:27;;;;;;;;;;;33.20;66.40;;;;;;1890032;74;20120;-79
2021/07/03 09:47:58;;;;;;;;;;;33.20;66.20;;;;;;1871817;75;20193;-80
2021/07/03 09:50:28;;;;;;;;;;;33.20;66.20;;;;;;1875003;74;20261;-81
2021/07/03 09:52:59;;;;;;;;;;;33.10;63.40;;;;;;1916947;72;20363;-82
2021/07/03 09:55:29;;;;;;;;;;;33.00;63.50;;;;;;1904097;73;20185;-80
2021/07/03 09:58:00;;;;;;;;;;;32.90;64.40;;;;;;1873831;73;20135;-79
2021/07/03 10:00:30;;;;;;;;;;;32.70;65.40;;;;;;1896442;73;20214;-78
2021/07/03 10:03:00;;;;;;;;;;;32.60;66.00;;;;;;1903748;73;20186;-79
2021/07/03 10:05:29;;;;;;;;;;;32.50;66.70;;;;;;1876927;74;20504;-79
2021/07/03 10:08:03;;;;;;;;;;;32.40;66.40;;;;;;1905274;73;20591;-79
2021/07/03 10:10:34;;;;;;;;;;;32.40;66.30;;;;;;1879049;74;20197;-79
2021/07/03 10:13:05;;;;;;;;;;;32.40;65.40;;;;;;1879842;74;20254;-79
2021/07/03 10:15:36;;;;;;;;;;;32.40;65.70;;;;;;1896936;74;20489;-80
2021/07/03 10:18:07;;;;;;;;;;;32.40;65.30;;;;;;1897646;73;20816;-79
2021/07/03 10:20:37;;;;;;;;;;;32.50;64.90;;;;;;1872449;74;20158;-78
2021/07/03 10:23:07;;;;;;;;;;;32.50;64.70;;;;;;1869897;75;20470;-79
2021/07/03 10:25:38;;;;;;;;;;;32.50;65.20;;;;;;1882877;73;20129;-80
2021/07/03 10:28:09;;;;;;;;;;;32.50;65.30;;;;;;1869341;74;20209;-79
2021/07/03 10:30:41;;;;;;;;;;;32.50;65.40;;;;;;1900168;73;20213;-79
2021/07/03 10:33:12;;;;;;;;;;;32.50;65.90;;;;;;1897168;73;20366;-80
2021/07/03 10:35:43;;;;;;;;;;;32.50;66.30;;;;;;1869223;75;20220;-79
2021/07/03 10:38:14;;;;;;;;;;;32.50;66.30;;;;;;1908015;73;20150;-80
2021/07/03 10:40:44;;;;;;;;;;;32.50;66.30;;;;;;1879959;74;20176;-79
2021/07/03 10:43:15;;;;;;;;;;;32.60;66.40;;;;;;1871497;74;20231;-79
2021/07/03 10:45:46;;;;;;;;;;;32.70;66.30;;;;;;1885268;74;20232;-80
2021/07/03 10:48:17;;;;;;;;;;;32.70;66.20;;;;;;1869471;75;20269;-80
2021/07/03 10:50:48;;;;;;;;;;;32.70;66.30;;;;;;1872587;73;20264;-80
2021/07/03 10:53:19;;;;;;;;;;;32.60;65.50;;;;;;1898170;74;20217;-79
2021/07/03 10:55:49;;;;;;;;;;;32.60;65.90;;;;;;1911509;74;20119;-80
2021/07/03 10:58:20;;;;;;;;;;;32.60;66.20;;;;;;1908112;74;20170;-79
2021/07/03 11:00:51;;;;;;;;;;;32.50;66.00;;;;;;1892267;73;20214;-79
2021/07/03 11:03:26;;;;;;;;;;;32.50;65.60;;;;;;1902406;73;20131;-80
2021/07/03 11:05:54;;;;;;;;;;;32.50;66.40;;;;;;1900049;74;20174;-80
2021/07/03 11:08:26;;;;;;;;;;;32.50;66.60;;;;;;1895210;73;20149;-80
2021/07/03 11:10:55;;;;;;;;;;;32.50;66.60;;;;;;1897304;74;20217;-79
2021/07/03 11:13:25;;;;;;;;;;;32.50;66.20;;;;;;1903004;74;20221;-80
2021/07/03 11:15:55;;;;;;;;;;;32.40;66.20;;;;;;1890474;74;20401;-79
2021/07/03 11:18:25;;;;;;;;;;;32.50;66.00;;;;;;1880877;75;20541;-80
2021/07/03 11:21:01;;;;;;;;;;;32.50;66.30;;;;;;1901772;73;20256;-81
2021/07/03 11:23:28;;;;;;;;;;;32.40;65.30;;;;;;1890614;73;20213;-80
2021/07/03 11:25:58;;;;;;;;;;;32.40;65.80;;;;;;1884198;74;20148;-79
2021/07/03 11:28:28;;;;;;;;;;;32.40;65.50;;;;;;1881499;75;20203;-81
2021/07/03 11:30:59;;;;;;;;;;;32.40;65.40;;;;;;1884421;73;20779;-81
2021/07/03 11:33:31;;;;;;;;;;;32.40;66.00;;;;;;1892967;73;20227;-80
2021/07/03 11:36:01;;;;;;;;;;;32.40;65.70;;;;;;1870459;75;20127;-79
2021/07/03 11:38:31;;;;;;;;;;;32.50;66.60;;;;;;1884519;75;20437;-80
2021/07/03 11:41:01;;;;;;;;;;;32.50;66.40;;;;;;1897613;74;20161;-81
2021/07/03 11:43:32;;;;;;;;;;;32.50;66.30;;;;;;1928541;72;20236;-81
2021/07/03 11:46:03;;;;;;;;;;;32.50;65.80;;;;;;1934836;73;20447;-81
2021/07/03 11:48:35;;;;;;;;;;;32.50;66.10;;;;;;1921384;72;20274;-80
2021/07/03 11:51:05;;;;;;;;;;;32.40;66.40;;;;;;1906686;74;20222;-80
2021/07/03 11:53:35;;;;;;;;;;;32.40;66.70;;;;;;1863080;74;20510;-80
2021/07/03 11:56:05;;;;;;;;;;;32.40;66.80;;;;;;1889886;75;20194;-80
2021/07/03 11:58:35;;;;;;;;;;;32.40;66.70;;;;;;1900738;74;20267;-80
2021/07/03 12:01:07;;;;;;;;;;;32.50;66.70;;;;;;1908018;74;20175;-80
2021/07/03 12:03:38;;;;;;;;;;;32.50;66.60;;;;;;1934378;73;20128;-80
2021/07/03 12:06:09;;;;;;;;;;;32.50;66.70;;;;;;1928279;73;20246;-79
2021/07/03 12:08:39;;;;;;;;;;;32.50;66.70;;;;;;1913716;73;20531;-80
2021/07/03 12:11:10;;;;;;;;;;;32.50;66.90;;;;;;1888738;73;20286;-80
2021/07/03 12:13:42;;;;;;;;;;;32.50;66.90;;;;;;1849765;75;20465;-79
2021/07/03 12:16:12;;;;;;;;;;;32.50;67.00;;;;;;1834925;76;20215;-80
2021/07/03 12:18:43;;;;;;;;;;;32.60;67.00;;;;;;1831773;76;20559;-80
2021/07/03 12:21:14;;;;;;;;;;;32.60;66.70;;;;;;1882776;73;20184;-80
2021/07/03 12:23:45;;;;;;;;;;;32.60;66.80;;;;;;1883020;75;20496;-80
2021/07/03 12:26:15;;;;;;;;;;;32.70;67.00;;;;;;1859225;75;20171;-80
2021/07/03 12:28:46;;;;;;;;;;;32.60;67.00;;;;;;1900507;74;20521;-80
2021/07/03 12:31:16;;;;;;;;;;;32.60;66.70;;;;;;1902739;74;20265;-80
2021/07/03 12:33:45;;;;;;;;;;;32.60;67.80;;;;;;1912809;74;20231;-80
2021/07/03 12:36:16;;;;;;;;;;;32.70;67.00;;;;;;1879672;74;20389;-80
2021/07/03 12:38:47;;;;;;;;;;;32.60;67.00;;;;;;1907375;74;20611;-79
2021/07/03 12:41:18;;;;;;;;;;;32.60;67.00;;;;;;1901517;74;20131;-78
2021/07/03 12:43:49;;;;;;;;;;;32.70;67.10;;;;;;1908241;73;20177;-80
2021/07/03 12:46:20;;;;;;;;;;;32.60;67.10;;;;;;1888674;73;20181;-80
2021/07/03 12:48:51;;;;;;;;;;;32.60;67.30;;;;;;1883944;74;20221;-81
2021/07/03 12:51:21;;;;;;;;;;;32.50;67.20;;;;;;1887439;74;20162;-79
2021/07/03 12:53:52;;;;;;;;;;;32.50;67.30;;;;;;1900487;74;20270;-80
2021/07/03 12:56:22;;;;;;;;;;;32.40;67.40;;;;;;1856662;75;20164;-79
2021/07/03 12:58:53;;;;;;;;;;;32.40;67.80;;;;;;1859774;75;20172;-78
2021/07/03 13:01:24;;;;;;;;;;;32.40;68.00;;;;;;1825806;76;20211;-80
2021/07/03 13:03:53;;;;;;;;;;;32.40;68.00;;;;;;1835810;76;20560;-80
2021/07/03 13:06:26;;;;;;;;;;;32.40;67.90;;;;;;1854512;75;20239;-79
2021/07/03 13:08:56;;;;;;;;;;;32.40;67.90;;;;;;1852711;75;20255;-79
2021/07/03 13:11:28;;;;;;;;;;;32.40;68.00;;;;;;1857441;75;20136;-82
2021/07/03 13:14:01;;;;;;;;;;;32.40;68.20;;;;;;1844040;76;20235;-79
2021/07/03 13:16:32;;;;;;;;;;;32.50;69.20;;;;;;1849404;76;20239;-89
2021/07/03 13:19:23;;;;;;;;;;;32.40;69.60;;;;;;1879332;74;20131;-91
2021/07/03 13:21:52;;;;;;;;;;;32.40;69.70;;;;;;1881993;74;20248;-93
2021/07/03 13:24:22;;;;;;;;;;;32.40;69.70;;;;;;1889214;73;20182;-92
2021/07/03 13:26:53;;;;;;;;;;;32.40;69.70;;;;;;1888532;74;20340;-94
2021/07/03 13:29:23;;;;;;;;;;;32.40;70.70;;;;;;1888789;73;20130;-94
2021/07/03 13:32:00;;;;;;;;;;;32.30;70.90;;;;;;1875221;74;20261;-94
2021/07/03 13:34:28;;;;;;;;;;;32.40;71.10;;;;;;1853839;75;20549;-91
2021/07/03 13:37:01;;;;;;;;;;;32.30;71.70;;;;;;1817901;76;20225;-89
2021/07/03 13:40:02;;;;;;;;;;;32.30;72.10;;;;;;1879982;74;20165;-90
2021/07/03 13:42:33;;;;;;;;;;;32.30;72.10;;;;;;1895414;73;20321;-91
2021/07/03 13:45:26;;;;;;;;;;;32.30;72.20;;;;;;1949389;71;20274;-89
2021/07/03 13:48:07;;;;;;;;;;;32.30;72.70;;;;;;1980666;71;20146;-87
2021/07/03 13:51:11;;;;;;;;;;;32.20;72.60;;;;;;1960266;70;20291;-93
2021/07/03 13:53:44;;;;;;;;;;;32.20;73.50;;;;;;1933308;72;20170;-94
2021/07/03 13:56:18;;;;;;;;;;;32.10;73.50;;;;;;1976172;71;20147;-94
2021/07/03 13:58:48;;;;;;;;;;;32.10;75.80;;;;;;1964767;71;20230;-91
2021/07/03 14:01:20;;;;;;;;;;;32.00;75.30;;;;;;1964815;71;20329;-95
2021/07/03 14:03:53;;;;;;;;;;;31.90;75.20;;;;;;1944897;72;20145;-94
2021/07/03 14:06:30;;;;;;;;;;;31.90;75.20;;;;;;1972593;71;20268;-94
2021/07/03 14:09:07;;;;;;;;;;;31.80;75.50;;;;;;1967432;70;20281;-92
2021/07/03 14:11:53;;;;;;;;;;;31.80;74.80;;;;;;1965333;71;20155;-95
2021/07/03 14:14:36;;;;;;;;;;;31.70;74.50;;;;;;1948626;71;20172;-92
2021/07/03 14:17:31;;;;;;;;;;;31.70;74.30;;;;;;1968200;72;20136;-88
2021/07/03 14:20:07;;;;;;;;;;;;;;;;;;;;;
2021/07/03 14:22:48;;;;;;;;;;;31.70;74.60;;;;;;1906549;74;20187;-93
2021/07/03 14:25:20;;;;;;;;;;;31.70;74.50;;;;;;1912055;73;20160;-93
2021/07/03 14:27:54;;;;;;;;;;;31.60;73.90;;;;;;1884410;73;20286;-94
2021/07/03 14:30:35;;;;;;;;;;;31.60;73.50;;;;;;1917802;73;20793;-90
2021/07/03 14:33:06;;;;;;;;;;;31.60;73.40;;;;;;1896211;74;20194;-92
2021/07/03 14:35:46;;;;;;;;;;;31.60;73.40;;;;;;1902626;73;20198;-94
2021/07/03 14:38:13;;;;;;;;;;;31.60;72.80;;;;;;1895441;74;20614;-91
2021/07/03 14:40:44;;;;;;;;;;;31.60;72.60;;;;;;1881946;74;20201;-90
2021/07/03 14:43:23;;;;;;;;;;;31.60;72.50;;;;;;1913347;73;20289;-90